Time;durP1;ratioP1;P1;durP2;ratioP2;P2;SDS_P1;SDS_P2;PMS_P1;PMS_P2;Temp;Humidity;BMP_temperature;BMP_pressure;BME280_temperature;BME280_humidity;BME280_pressure;Samples;Min_cycle;Max_cycle;Signal;HPM_P1;HPM_P2
2022/05/17 00:01:59;;;;;;;3.85;1.88;;;4.20;99.90;;;;;;4989982;28;20077;-85
2022/05/17 00:04:29;;;;;;;4.65;1.92;;;4.20;99.90;;;;;;4987572;28;20411;-85
2022/05/17 00:06:56;;;;;;;5.43;1.42;;;4.20;99.90;;;;;;4994478;28;20885;-85
2022/05/17 00:09:23;;;;;;;4.32;1.90;;;4.20;99.90;;;;;;4989731;28;20057;-85
2022/05/17 00:11:51;;;;;;;3.15;1.38;;;4.10;99.90;;;;;;4973594;28;20164;-85
2022/05/17 00:14:18;;;;;;;3.65;1.80;;;4.20;99.90;;;;;;4987121;28;20060;-85
2022/05/17 00:16:46;;;;;;;6.15;3.03;;;4.10;99.90;;;;;;4988104;28;20058;-85
2022/05/17 00:19:16;;;;;;;4.88;2.20;;;4.00;99.90;;;;;;4990247;28;20054;-85
2022/05/17 00:21:44;;;;;;;3.20;2.70;;;4.00;99.90;;;;;;4973431;28;20160;-85
2022/05/17 00:24:12;;;;;;;2.42;1.80;;;4.00;99.90;;;;;;4993645;28;20595;-85
2022/05/17 00:26:40;;;;;;;4.35;1.88;;;3.90;99.90;;;;;;4977731;28;20073;-85
2022/05/17 00:29:08;;;;;;;5.10;1.52;;;3.90;99.90;;;;;;4972668;28;20122;-85
2022/05/17 00:31:35;;;;;;;3.08;1.42;;;3.80;99.90;;;;;;4988914;28;20417;-85
2022/05/17 00:34:03;;;;;;;2.47;2.20;;;3.80;99.90;;;;;;4988448;28;20137;-85
2022/05/17 00:36:33;;;;;;;5.95;1.77;;;3.80;99.90;;;;;;4993564;28;20054;-85
2022/05/17 00:39:01;;;;;;;2.47;1.85;;;3.80;99.90;;;;;;4987843;28;20057;-84
2022/05/17 00:41:28;;;;;;;4.63;2.17;;;3.80;99.90;;;;;;4972205;28;20049;-84
2022/05/17 00:46:49;;;;;;;5.28;1.60;;;3.80;99.90;;;;;;4988339;28;20486;-85
2022/05/17 00:49:39;;;;;;;3.38;1.48;;;3.80;99.90;;;;;;4968497;28;20471;-85
2022/05/17 00:52:12;;;;;;;4.30;2.42;;;3.80;99.90;;;;;;4986618;28;20054;-85
2022/05/17 00:54:42;;;;;;;5.47;2.25;;;3.80;99.90;;;;;;4985935;28;20053;-85
2022/05/17 00:57:17;;;;;;;5.03;1.98;;;3.80;99.90;;;;;;4956959;28;20149;-85
2022/05/17 00:59:45;;;;;;;2.75;2.08;;;3.90;99.90;;;;;;4990361;28;21055;-84
2022/05/17 01:02:12;;;;;;;6.35;2.03;;;3.90;99.90;;;;;;4969972;28;20115;-85
2022/05/17 01:04:40;;;;;;;2.92;1.60;;;3.90;99.90;;;;;;4986232;28;20061;-85
2022/05/17 01:07:13;;;;;;;2.20;1.42;;;3.90;99.90;;;;;;4987471;28;20052;-85
2022/05/17 01:09:40;;;;;;;4.25;3.03;;;3.90;99.90;;;;;;4988413;28;20697;-85
2022/05/17 01:12:07;;;;;;;2.80;1.70;;;3.90;99.90;;;;;;4988192;28;20115;-85
2022/05/17 01:14:58;;;;;;;3.00;1.98;;;3.80;99.90;;;;;;4988389;28;20159;-85
2022/05/17 01:17:27;;;;;;;4.22;1.50;;;3.80;99.90;;;;;;4986462;28;20096;-85
2022/05/17 01:19:54;;;;;;;3.38;1.58;;;3.80;99.90;;;;;;4974546;28;20103;-85
2022/05/17 01:22:22;;;;;;;5.30;1.90;;;3.80;99.90;;;;;;4978271;28;20058;-85
2022/05/17 01:24:49;;;;;;;3.45;1.58;;;3.80;99.90;;;;;;4979230;28;20045;-85
2022/05/17 01:27:30;;;;;;;2.10;1.40;;;3.80;99.90;;;;;;4992207;28;21273;-85
2022/05/17 01:29:57;;;;;;;2.58;2.03;;;3.80;99.90;;;;;;4994338;28;20057;-85
2022/05/17 01:32:24;;;;;;;3.50;1.52;;;3.80;99.90;;;;;;4994231;28;20049;-85
2022/05/17 01:34:54;;;;;;;5.63;2.25;;;3.80;99.90;;;;;;4991072;28;21077;-85
2022/05/17 01:37:21;;;;;;;2.55;1.67;;;3.80;99.90;;;;;;4989780;28;20058;-85
2022/05/17 01:39:48;;;;;;;1.65;1.55;;;3.80;99.90;;;;;;4995098;28;20572;-85
2022/05/17 01:42:15;;;;;;;3.58;2.00;;;3.80;99.90;;;;;;4994650;28;20487;-85
2022/05/17 01:44:43;;;;;;;5.20;1.90;;;3.90;99.90;;;;;;4996512;28;20062;-85
2022/05/17 01:47:12;;;;;;;2.20;1.50;;;3.90;99.90;;;;;;4973472;28;20570;-86
2022/05/17 01:49:39;;;;;;;3.33;1.35;;;3.90;99.90;;;;;;4972423;28;20169;-85
2022/05/17 01:52:06;;;;;;;3.35;1.65;;;3.90;99.90;;;;;;4957986;28;20141;-85
2022/05/17 01:54:33;;;;;;;3.58;2.10;;;3.90;99.90;;;;;;4987437;28;20709;-86
2022/05/17 01:57:00;;;;;;;2.20;1.60;;;3.90;99.90;;;;;;4970540;28;20736;-85
2022/05/17 01:59:27;;;;;;;5.85;2.33;;;3.90;99.90;;;;;;4985479;28;20053;-85
2022/05/17 02:01:54;;;;;;;3.75;2.08;;;3.90;99.90;;;;;;4989285;28;20126;-85
2022/05/17 02:04:24;;;;;;;3.83;1.88;;;3.90;99.90;;;;;;4995414;28;20064;-85
2022/05/17 02:06:53;;;;;;;4.05;1.75;;;3.90;99.90;;;;;;4978280;28;20056;-85
2022/05/17 02:09:20;;;;;;;6.13;2.17;;;3.90;99.90;;;;;;4986454;28;20144;-85
2022/05/17 02:11:46;;;;;;;2.97;1.85;;;3.90;99.90;;;;;;4991357;28;20515;-85
2022/05/17 02:14:14;;;;;;;2.25;1.55;;;3.90;99.90;;;;;;4974116;28;20057;-85
2022/05/17 02:16:41;;;;;;;4.40;1.65;;;3.90;99.90;;;;;;4977669;28;20053;-85
2022/05/17 02:19:09;;;;;;;2.08;1.85;;;3.90;99.90;;;;;;4974142;28;20061;-86
2022/05/17 02:21:36;;;;;;;3.45;2.15;;;3.80;99.90;;;;;;4993047;28;20049;-86
2022/05/17 02:24:04;;;;;;;2.83;2.28;;;3.80;99.90;;;;;;4988736;28;20069;-86
2022/05/17 02:26:31;;;;;;;4.70;2.15;;;3.80;99.90;;;;;;4974785;28;20058;-86
2022/05/17 02:28:58;;;;;;;4.32;1.92;;;3.80;99.90;;;;;;4991552;28;20077;-85
2022/05/17 02:31:25;;;;;;;3.05;2.05;;;3.80;99.90;;;;;;4994388;28;20112;-85
2022/05/17 02:33:52;;;;;;;3.30;1.38;;;3.80;99.90;;;;;;4993344;28;20100;-85
2022/05/17 02:36:19;;;;;;;3.90;1.85;;;3.80;99.90;;;;;;4993853;28;20596;-85
2022/05/17 02:38:46;;;;;;;8.38;1.75;;;3.80;99.90;;;;;;4969386;28;20073;-85
2022/05/17 02:41:17;;;;;;;4.47;1.90;;;3.80;99.90;;;;;;4990923;28;20053;-84
2022/05/17 02:43:45;;;;;;;2.13;1.50;;;3.80;99.90;;;;;;4997714;28;20057;-85
2022/05/17 02:46:13;;;;;;;2.72;1.42;;;3.80;99.90;;;;;;4974120;28;20069;-85
2022/05/17 02:48:43;;;;;;;5.55;1.83;;;3.80;99.90;;;;;;4994880;28;20665;-85
2022/05/17 02:51:14;;;;;;;4.15;2.20;;;3.80;99.90;;;;;;4988269;28;20053;-84
2022/05/17 02:53:41;;;;;;;2.22;1.88;;;3.80;99.90;;;;;;4991586;28;20057;-84
2022/05/17 02:56:08;;;;;;;3.50;1.08;;;3.70;99.90;;;;;;4971469;28;20145;-84
2022/05/17 02:58:37;;;;;;;1.38;0.80;;;3.80;99.90;;;;;;4993741;28;20053;-85
2022/05/17 03:01:05;;;;;;;5.82;1.88;;;3.70;99.90;;;;;;4990964;28;20059;-85
2022/05/17 03:03:35;;;;;;;2.63;1.50;;;3.70;99.90;;;;;;4990295;28;20491;-85
2022/05/17 03:06:02;;;;;;;2.33;1.38;;;3.80;99.90;;;;;;4991241;28;20057;-85
2022/05/17 03:08:29;;;;;;;2.60;2.00;;;3.80;99.90;;;;;;4990325;28;20061;-85
2022/05/17 03:10:56;;;;;;;2.42;1.85;;;3.80;99.90;;;;;;4988223;28;20108;-85
2022/05/17 03:13:23;;;;;;;3.15;1.40;;;3.80;99.90;;;;;;4973436;28;20116;-85
2022/05/17 03:15:51;;;;;;;5.18;1.58;;;3.80;99.90;;;;;;4994912;28;20406;-85
2022/05/17 03:18:18;;;;;;;4.07;1.33;;;3.80;99.90;;;;;;4973838;28;20140;-85
2022/05/17 03:20:48;;;;;;;1.33;1.15;;;3.80;99.90;;;;;;4977564;28;20089;-85
2022/05/17 03:23:15;;;;;;;2.22;1.25;;;3.90;99.90;;;;;;4973164;28;20054;-85
2022/05/17 03:25:42;;;;;;;1.58;1.13;;;3.90;99.90;;;;;;4959207;28;20144;-85
2022/05/17 03:28:13;;;;;;;1.73;1.45;;;3.90;99.90;;;;;;4975316;28;20049;-85
2022/05/17 03:30:40;;;;;;;1.83;1.25;;;4.00;99.90;;;;;;4975777;28;20057;-85
2022/05/17 03:33:08;;;;;;;4.03;1.27;;;4.00;99.90;;;;;;4990462;28;20427;-85
2022/05/17 03:35:36;;;;;;;3.90;1.17;;;4.00;99.90;;;;;;4988889;28;20899;-85
2022/05/17 03:38:03;;;;;;;3.63;1.58;;;4.10;99.90;;;;;;4992053;28;20061;-85
2022/05/17 03:40:30;;;;;;;3.60;1.30;;;4.10;99.90;;;;;;4992054;28;20053;-85
2022/05/17 03:42:57;;;;;;;5.00;2.50;;;4.20;99.90;;;;;;4991372;28;20144;-85
2022/05/17 03:45:24;;;;;;;3.40;1.95;;;4.20;99.90;;;;;;4985368;28;20145;-85
2022/05/17 03:47:51;;;;;;;10.68;1.80;;;4.30;99.90;;;;;;4992845;28;20421;-85
2022/05/17 03:50:18;;;;;;;3.20;1.58;;;4.40;99.90;;;;;;4990400;28;20170;-85
2022/05/17 03:52:45;;;;;;;3.78;1.50;;;4.50;99.90;;;;;;4988927;28;20175;-85
2022/05/17 03:55:12;;;;;;;7.53;1.80;;;4.60;99.90;;;;;;4969706;28;20075;-85
2022/05/17 03:57:39;;;;;;;3.45;2.17;;;4.70;99.90;;;;;;4990009;28;20861;-85
2022/05/17 04:00:08;;;;;;;7.22;2.63;;;4.80;99.90;;;;;;4982369;28;20152;-85
2022/05/17 04:02:43;;;;;;;2.85;1.58;;;5.00;99.90;;;;;;4973145;28;20054;-85
2022/05/17 04:05:11;;;;;;;2.22;1.52;;;5.20;99.90;;;;;;4967504;28;20888;-85
2022/05/17 04:07:38;;;;;;;2.42;1.38;;;5.50;99.90;;;;;;4985050;28;20108;-84
2022/05/17 04:10:07;;;;;;;6.35;2.45;;;5.60;99.90;;;;;;4967132;28;20060;-84
2022/05/17 04:12:34;;;;;;;3.22;1.80;;;5.80;99.90;;;;;;4960768;28;20152;-83
2022/05/17 04:15:03;;;;;;;8.00;2.38;;;5.90;99.90;;;;;;4983401;28;20081;-83
2022/05/17 04:17:32;;;;;;;4.78;1.63;;;6.10;99.90;;;;;;4979765;28;20132;-84
2022/05/17 04:20:00;;;;;;;2.20;1.98;;;6.20;99.90;;;;;;4970465;28;20041;-84
2022/05/17 04:22:27;;;;;;;4.68;2.13;;;6.20;99.90;;;;;;4987122;28;20129;-84
2022/05/17 04:24:54;;;;;;;8.75;2.25;;;6.20;99.90;;;;;;4972585;28;22731;-85
2022/05/17 04:27:24;;;;;;;4.90;2.10;;;6.30;99.90;;;;;;4976283;28;20112;-85
2022/05/17 04:29:51;;;;;;;1.92;1.58;;;6.40;99.90;;;;;;4972021;28;20049;-85
2022/05/17 04:32:18;;;;;;;4.85;2.17;;;6.50;99.90;;;;;;4987113;28;20492;-85
2022/05/17 04:34:45;;;;;;;7.35;2.05;;;6.50;99.90;;;;;;4975878;28;20049;-84
2022/05/17 04:37:12;;;;;;;5.05;1.67;;;6.60;99.90;;;;;;4991298;28;20045;-84
2022/05/17 04:39:39;;;;;;;3.67;1.98;;;6.70;99.90;;;;;;4987911;28;20182;-85
2022/05/17 04:42:07;;;;;;;5.88;3.63;;;6.80;99.90;;;;;;4971314;28;20172;-85
2022/05/17 04:44:34;;;;;;;4.22;1.73;;;7.00;99.90;;;;;;4969725;28;20782;-85
2022/05/17 04:47:00;;;;;;;6.75;2.58;;;7.00;99.90;;;;;;4986209;28;20160;-85
2022/05/17 04:49:29;;;;;;;8.43;1.92;;;7.10;99.90;;;;;;4981491;28;20422;-85
2022/05/17 04:51:57;;;;;;;3.88;1.90;;;7.20;99.90;;;;;;4970110;28;20133;-84
2022/05/17 04:54:24;;;;;;;3.70;1.40;;;7.30;99.90;;;;;;4985622;28;20049;-83
2022/05/17 04:56:51;;;;;;;3.03;1.50;;;7.40;99.90;;;;;;4991008;28;20348;-83
2022/05/17 04:59:22;;;;;;;1.70;1.15;;;7.50;99.90;;;;;;4985950;28;20045;-83
2022/05/17 05:01:49;;;;;;;2.47;1.45;;;7.60;99.90;;;;;;4988167;28;20133;-84
2022/05/17 05:04:19;;;;;;;1.80;1.65;;;7.60;99.90;;;;;;4986090;28;20093;-84
2022/05/17 05:06:46;;;;;;;3.45;1.52;;;7.70;99.90;;;;;;4983464;28;20054;-83
2022/05/17 05:09:13;;;;;;;4.30;1.75;;;7.70;99.90;;;;;;4966053;28;20053;-83
2022/05/17 05:11:41;;;;;;;4.70;2.63;;;7.80;99.90;;;;;;4984143;28;20510;-83
2022/05/17 05:14:09;;;;;;;2.33;1.75;;;7.90;99.90;;;;;;4967932;28;20050;-84
2022/05/17 05:16:38;;;;;;;1.63;1.30;;;7.80;99.90;;;;;;4970557;28;20793;-83
2022/05/17 05:19:06;;;;;;;2.80;1.30;;;7.90;99.90;;;;;;4968108;28;21539;-83
2022/05/17 05:21:33;;;;;;;4.65;1.42;;;7.90;99.90;;;;;;4968641;28;20770;-84
2022/05/17 05:24:00;;;;;;;5.70;1.77;;;8.00;99.90;;;;;;4970396;28;20096;-85
2022/05/17 05:26:27;;;;;;;4.00;1.73;;;8.00;99.90;;;;;;4956973;28;20109;-84
2022/05/17 05:28:54;;;;;;;2.80;2.33;;;8.00;99.90;;;;;;4972427;28;21244;-84
2022/05/17 05:31:22;;;;;;;1.90;1.48;;;8.10;99.90;;;;;;4969312;28;20050;-83
2022/05/17 05:33:49;;;;;;;2.50;1.58;;;8.20;99.90;;;;;;4973410;28;20057;-84
2022/05/17 05:36:16;;;;;;;5.00;2.10;;;8.10;99.90;;;;;;4968739;28;20109;-84
2022/05/17 05:38:43;;;;;;;2.17;1.13;;;8.10;99.90;;;;;;4950262;28;20478;-84
2022/05/17 05:41:12;;;;;;;10.73;2.47;;;8.10;99.90;;;;;;4973984;28;20117;-83
2022/05/17 05:43:39;;;;;;;4.82;1.63;;;8.20;99.90;;;;;;4974930;28;20454;-83
2022/05/17 05:46:06;;;;;;;3.55;1.67;;;8.20;99.90;;;;;;4975178;28;20136;-83
2022/05/17 05:48:34;;;;;;;2.90;1.75;;;8.20;99.90;;;;;;4960944;28;20522;-83
2022/05/17 05:51:02;;;;;;;4.25;1.77;;;8.20;99.90;;;;;;4959669;28;20057;-83
2022/05/17 05:53:29;;;;;;;1.60;1.40;;;8.30;99.90;;;;;;4974364;28;20050;-83
2022/05/17 05:56:01;;;;;;;3.45;1.70;;;8.30;99.90;;;;;;4959147;28;20054;-83
2022/05/17 05:58:34;;;;;;;2.63;2.30;;;8.30;99.90;;;;;;4975506;28;20057;-82
2022/05/17 06:01:01;;;;;;;2.00;1.40;;;8.40;99.90;;;;;;4975059;28;20109;-83
2022/05/17 06:03:28;;;;;;;2.17;1.60;;;8.40;99.90;;;;;;4975793;28;20068;-83
2022/05/17 06:05:55;;;;;;;5.70;2.38;;;8.30;99.90;;;;;;4978298;28;20119;-83
2022/05/17 06:08:22;;;;;;;5.13;2.83;;;8.40;99.90;;;;;;4980480;28;20145;-83
2022/05/17 06:10:49;;;;;;;3.55;2.08;;;8.40;99.90;;;;;;4963931;28;20116;-84
2022/05/17 06:13:17;;;;;;;3.42;1.73;;;8.50;99.90;;;;;;4980974;28;20061;-84
2022/05/17 06:15:45;;;;;;;2.63;2.30;;;8.50;99.90;;;;;;5001883;28;20045;-83
2022/05/17 06:18:12;;;;;;;8.40;2.35;;;8.50;99.90;;;;;;4997287;28;20050;-83
2022/05/17 06:20:40;;;;;;;3.08;2.20;;;8.40;99.90;;;;;;4998119;28;20050;-83
2022/05/17 06:23:08;;;;;;;4.20;3.30;;;8.40;99.90;;;;;;4980602;28;20812;-83
2022/05/17 06:25:35;;;;;;;6.60;3.33;;;8.40;99.90;;;;;;5001558;28;20487;-84
2022/05/17 06:28:03;;;;;;;2.58;2.28;;;8.30;99.90;;;;;;5002885;28;20050;-84
2022/05/17 06:30:30;;;;;;;4.78;2.58;;;8.40;99.90;;;;;;5001772;28;20296;-85
2022/05/17 06:33:01;;;;;;;2.38;2.17;;;8.40;99.90;;;;;;5002900;28;20049;-85
2022/05/17 06:35:27;;;;;;;5.30;2.40;;;8.50;99.90;;;;;;5001525;28;20050;-85
2022/05/17 06:37:55;;;;;;;4.88;1.95;;;8.50;99.90;;;;;;4998485;28;20141;-85
2022/05/17 06:40:21;;;;;;;4.45;1.77;;;8.50;99.90;;;;;;4999062;28;20100;-84
2022/05/17 06:42:48;;;;;;;2.38;1.90;;;8.60;99.90;;;;;;4999594;28;20057;-84
2022/05/17 06:45:15;;;;;;;5.22;1.33;;;8.60;99.90;;;;;;4998991;28;20081;-84
2022/05/17 06:47:43;;;;;;;5.65;2.13;;;8.60;99.90;;;;;;5000078;28;20696;-85
2022/05/17 06:50:10;;;;;;;6.38;1.98;;;8.60;99.90;;;;;;5003187;28;20053;-85
2022/05/17 06:52:37;;;;;;;4.85;1.45;;;8.70;99.90;;;;;;5002174;28;20049;-84
2022/05/17 06:55:06;;;;;;;4.25;1.48;;;8.70;99.90;;;;;;4999870;28;20169;-85
2022/05/17 06:57:35;;;;;;;5.82;1.77;;;8.70;99.90;;;;;;5000003;28;20560;-84
2022/05/17 07:00:05;;;;;;;3.65;1.65;;;8.70;99.90;;;;;;4997549;28;20042;-84
2022/05/17 07:02:32;;;;;;;5.90;1.98;;;8.80;99.90;;;;;;4999984;28;20114;-85
2022/05/17 07:04:59;;;;;;;4.93;1.88;;;8.80;99.90;;;;;;4982147;28;20050;-84
2022/05/17 07:07:29;;;;;;;2.78;1.25;;;8.80;99.90;;;;;;4998279;28;20050;-85
2022/05/17 07:15:28;;;;;;;1.45;1.27;;;8.90;99.90;;;;;;4999027;28;20163;-84
2022/05/17 07:17:57;;;;;;;1.40;1.30;;;9.00;99.90;;;;;;4997664;28;20407;-85
2022/05/17 07:20:24;;;;;;;2.83;1.80;;;9.00;99.90;;;;;;4980261;28;20088;-85
2022/05/17 07:22:51;;;;;;;2.03;1.40;;;9.00;99.90;;;;;;4979891;28;20119;-85
2022/05/17 07:25:18;;;;;;;3.78;1.73;;;9.10;99.90;;;;;;4998158;28;20061;-84
2022/05/17 07:27:46;;;;;;;3.75;1.50;;;8.90;99.90;;;;;;4998013;28;20650;-84
2022/05/17 07:30:13;;;;;;;3.05;1.33;;;9.00;99.90;;;;;;4971671;28;20100;-83
2022/05/17 07:32:40;;;;;;;2.20;1.35;;;9.10;99.90;;;;;;5000464;28;20479;-85
2022/05/17 07:35:07;;;;;;;2.33;1.35;;;9.20;99.90;;;;;;4966272;28;20125;-84
2022/05/17 07:37:35;;;;;;;2.15;0.95;;;9.30;99.90;;;;;;4978546;28;20108;-86
2022/05/17 07:40:03;;;;;;;4.80;1.92;;;9.30;99.90;;;;;;4984069;28;20049;-85
2022/05/17 07:42:31;;;;;;;5.57;1.90;;;9.30;99.90;;;;;;4999857;28;20153;-84
2022/05/17 07:44:58;;;;;;;2.55;1.08;;;9.30;99.90;;;;;;4980545;28;20057;-85
2022/05/17 07:47:26;;;;;;;2.60;1.40;;;9.30;99.90;;;;;;4998636;28;20536;-85
2022/05/17 07:49:53;;;;;;;1.88;1.20;;;9.40;99.90;;;;;;4980623;28;20782;-85
2022/05/17 07:52:20;;;;;;;6.05;2.00;;;9.30;99.90;;;;;;4979314;28;20046;-85
2022/05/17 07:54:47;;;;;;;1.63;1.23;;;9.30;99.90;;;;;;4999581;28;20466;-85
2022/05/17 07:57:14;;;;;;;3.17;1.17;;;9.20;99.90;;;;;;4995604;28;20410;-86
2022/05/17 07:59:41;;;;;;;5.47;1.13;;;9.20;99.90;;;;;;4994194;28;20553;-84
2022/05/17 08:02:08;;;;;;;2.70;1.20;;;9.20;99.90;;;;;;4981891;28;20041;-86
2022/05/17 08:04:36;;;;;;;2.15;0.98;;;9.20;99.90;;;;;;4998843;28;20126;-85
2022/05/17 08:07:03;;;;;;;5.03;1.90;;;9.30;99.90;;;;;;4978789;28;20073;-84
2022/05/17 08:09:33;;;;;;;3.03;1.38;;;9.40;99.90;;;;;;4977961;28;20078;-84
2022/05/17 08:12:00;;;;;;;1.33;1.02;;;9.40;99.90;;;;;;4999462;28;20523;-84
2022/05/17 08:14:28;;;;;;;1.83;1.00;;;9.50;99.90;;;;;;4983291;28;20093;-84
2022/05/17 08:16:55;;;;;;;1.63;1.05;;;9.50;99.90;;;;;;4996457;28;20053;-84
2022/05/17 08:19:21;;;;;;;3.33;1.13;;;9.50;99.90;;;;;;4994853;28;20049;-85
2022/05/17 08:21:48;;;;;;;2.00;1.00;;;9.50;99.90;;;;;;4980276;28;20045;-85
2022/05/17 08:24:15;;;;;;;2.10;1.00;;;9.50;99.90;;;;;;4998262;28;20418;-86
2022/05/17 08:29:28;;;;;;;1.30;0.95;;;9.50;99.90;;;;;;4973679;28;20041;-85
2022/05/17 08:34:41;;;;;;;2.88;1.23;;;9.70;99.90;;;;;;5000608;28;20050;-85
2022/05/17 08:37:08;;;;;;;3.08;0.93;;;9.70;99.90;;;;;;5001775;28;20132;-84
2022/05/17 08:39:35;;;;;;;1.73;1.58;;;9.60;99.90;;;;;;4980888;28;20123;-84
2022/05/17 08:42:13;;;;;;;2.67;1.13;;;9.60;99.90;;;;;;4996423;28;20061;-84
2022/05/17 08:44:48;;;;;;;0.88;0.55;;;9.50;99.90;;;;;;4980372;28;20046;-85
2022/05/17 08:47:33;;;;;;;2.17;1.05;;;9.60;99.90;;;;;;4993055;28;20116;-85
2022/05/17 08:50:25;;;;;;;3.30;1.67;;;9.70;99.90;;;;;;4998429;28;20145;-83
2022/05/17 08:52:54;;;;;;;10.73;1.83;;;9.70;99.90;;;;;;4996385;28;20042;-85
2022/05/17 08:55:24;;;;;;;3.78;1.58;;;9.90;99.90;;;;;;4997959;28;20134;-85
2022/05/17 08:58:14;;;;;;;4.38;1.27;;;9.80;99.90;;;;;;4963799;28;20094;-85
2022/05/17 09:00:43;;;;;;;;;;;9.80;99.90;;;;;;4990878;28;20060;-84
2022/05/17 09:03:48;;;;;;;2.55;1.52;;;9.80;99.90;;;;;;4992051;28;20752;-83
2022/05/17 09:06:50;;;;;;;2.75;1.67;;;9.80;99.90;;;;;;4997906;28;20046;-85
2022/05/17 09:09:51;;;;;;;5.60;2.78;;;9.70;99.90;;;;;;4983188;28;20049;-84
2022/05/17 09:12:37;;;;;;;2.47;1.35;;;9.80;99.90;;;;;;4997012;28;20153;-85
2022/05/17 09:15:05;;;;;;;1.33;1.23;;;9.80;99.90;;;;;;4993148;28;20041;-86
2022/05/17 09:17:34;;;;;;;1.60;1.13;;;9.90;99.90;;;;;;4977113;28;20133;-85
2022/05/17 09:20:03;;;;;;;1.10;1.00;;;10.00;99.90;;;;;;4993555;28;20057;-85
2022/05/17 09:22:31;;;;;;;2.80;0.98;;;10.10;99.90;;;;;;4998684;28;20045;-85
2022/05/17 09:25:13;;;;;;;1.23;0.75;;;10.10;99.90;;;;;;4999468;28;20045;-85
2022/05/17 09:27:41;;;;;;;1.02;0.93;;;10.10;99.90;;;;;;4978174;28;20064;-84
2022/05/17 09:30:30;;;;;;;1.67;1.10;;;10.20;99.90;;;;;;4997103;28;20116;-84
2022/05/17 09:33:08;;;;;;;3.47;1.00;;;10.10;99.90;;;;;;4991022;28;20407;-84
2022/05/17 09:35:56;;;;;;;1.45;0.90;;;10.30;99.90;;;;;;4988360;28;20131;-86
2022/05/17 09:38:26;;;;;;;2.67;1.20;;;10.30;99.90;;;;;;4998819;28;20064;-86
2022/05/17 09:40:58;;;;;;;3.67;1.38;;;10.40;99.90;;;;;;4984603;28;20136;-85
2022/05/17 09:43:51;;;;;;;2.22;1.02;;;10.40;99.90;;;;;;4998107;28;20515;-84
2022/05/17 09:46:36;;;;;;;1.05;0.80;;;10.50;99.90;;;;;;4976500;28;20144;-86
2022/05/17 09:52:35;;;;;;;1.05;0.70;;;10.50;99.90;;;;;;4981071;28;20053;-86
2022/05/17 09:55:27;;;;;;;4.70;1.23;;;10.60;99.90;;;;;;4995999;28;20049;-84
2022/05/17 09:58:27;;;;;;;1.05;0.57;;;10.60;99.90;;;;;;4985819;28;20046;-84
2022/05/17 10:00:56;;;;;;;0.80;0.35;;;10.70;99.90;;;;;;4975546;28;20053;-85
2022/05/17 10:03:34;;;;;;;1.30;0.90;;;10.60;99.90;;;;;;4975424;28;20307;-84
2022/05/17 10:06:06;;;;;;;1.95;1.40;;;10.50;99.90;;;;;;4993635;28;20050;-86
2022/05/17 10:08:38;;;;;;;1.67;0.43;;;10.40;99.90;;;;;;4998680;28;20439;-84
2022/05/17 10:11:13;;;;;;;2.38;0.82;;;10.40;99.90;;;;;;4998625;28;20053;-87
2022/05/17 10:13:51;;;;;;;3.45;0.80;;;10.40;99.90;;;;;;4969108;28;20045;-85
2022/05/17 10:16:40;;;;;;;1.58;0.77;;;10.30;99.90;;;;;;4979190;28;20392;-87
2022/05/17 10:20:08;;;;;;;0.88;0.50;;;10.50;99.90;;;;;;4978812;28;20406;-88
2022/05/17 10:22:54;;;;;;;1.58;0.40;;;10.70;99.90;;;;;;4919919;29;20114;-87
2022/05/17 10:25:34;;;;;;;7.45;0.82;;;10.70;99.90;;;;;;4991609;28;20511;-86
2022/05/17 10:28:30;;;;;;;0.38;0.30;;;10.80;99.90;;;;;;4996322;28;20495;-85
2022/05/17 10:31:17;;;;;;;3.83;0.85;;;10.70;99.90;;;;;;4978982;28;20054;-86
2022/05/17 10:34:01;;;;;;;1.85;0.68;;;10.60;99.90;;;;;;4997590;28;20042;-86
2022/05/17 10:36:39;;;;;;;2.13;1.15;;;10.70;99.90;;;;;;4961283;28;20097;-86
2022/05/17 10:39:11;;;;;;;1.77;0.50;;;10.80;99.90;;;;;;4977641;28;20046;-84
2022/05/17 10:41:38;;;;;;;1.92;0.40;;;10.70;99.90;;;;;;5000411;28;20125;-86
2022/05/17 10:44:06;;;;;;;6.78;1.67;;;10.70;99.90;;;;;;4991445;28;20073;-85
2022/05/17 10:46:38;;;;;;;5.55;0.68;;;10.30;99.90;;;;;;4975911;28;20130;-87
2022/05/17 10:49:11;;;;;;;4.45;0.90;;;10.40;99.90;;;;;;4995944;28;20054;-84
2022/05/17 10:51:47;;;;;;;0.85;0.38;;;10.50;99.90;;;;;;4994355;28;20083;-85
2022/05/17 10:54:34;;;;;;;1.38;0.45;;;10.60;99.90;;;;;;4991276;28;20682;-84
2022/05/17 10:57:23;;;;;;;1.25;0.65;;;10.60;99.90;;;;;;4979337;28;20395;-84
2022/05/17 11:00:14;;;;;;;2.63;0.45;;;10.60;99.90;;;;;;4983932;28;20062;-86
2022/05/17 11:03:00;;;;;;;;;;;10.50;99.90;;;;;;4993819;28;20332;-86
2022/05/17 11:06:03;;;;;;;5.15;0.63;;;10.50;99.90;;;;;;4997818;28;19929;-85
2022/05/17 11:09:01;;;;;;;4.40;1.23;;;10.90;99.90;;;;;;4994143;28;20065;-85
2022/05/17 11:11:56;;;;;;;1.55;0.30;;;11.00;99.90;;;;;;4975417;28;20517;-85
2022/05/17 11:14:25;;;;;;;1.35;1.00;;;10.90;99.90;;;;;;4976612;28;20509;-85
2022/05/17 11:17:09;;;;;;;0.73;0.43;;;10.90;99.90;;;;;;4978969;28;20055;-85
2022/05/17 11:19:42;;;;;;;1.92;0.60;;;10.90;99.90;;;;;;4993437;28;20072;-86
2022/05/17 11:22:27;;;;;;;1.42;0.40;;;11.00;99.90;;;;;;4997331;28;20037;-87
2022/05/17 11:25:00;;;;;;;1.27;0.70;;;10.90;99.90;;;;;;4975497;28;21168;-86
2022/05/17 11:27:46;;;;;;;1.98;0.57;;;10.70;99.90;;;;;;4974123;28;20049;-85
2022/05/17 11:30:38;;;;;;;0.65;0.40;;;10.60;99.90;;;;;;4999597;28;20045;-84
2022/05/17 11:33:31;;;;;;;0.63;0.32;;;10.70;99.90;;;;;;4976375;28;20058;-84
2022/05/17 11:36:31;;;;;;;1.65;0.32;;;10.80;99.90;;;;;;5001384;28;20045;-86
2022/05/17 11:39:00;;;;;;;1.15;0.22;;;10.70;99.90;;;;;;4958570;28;20065;-86
2022/05/17 11:41:33;;;;;;;1.67;0.45;;;10.50;99.90;;;;;;4976212;28;20415;-86
2022/05/17 11:44:03;;;;;;;1.08;0.45;;;10.60;99.90;;;;;;4979104;28;20041;-86
2022/05/17 11:46:30;;;;;;;0.80;0.57;;;10.60;99.90;;;;;;4974961;28;20498;-85
2022/05/17 11:49:18;;;;;;;1.38;0.45;;;10.70;99.90;;;;;;4996823;28;20057;-86
2022/05/17 11:51:58;;;;;;;1.30;0.43;;;10.90;99.90;;;;;;4995716;28;20612;-86
2022/05/17 11:54:45;;;;;;;0.80;0.43;;;10.90;99.90;;;;;;4995981;28;20056;-84
2022/05/17 11:57:33;;;;;;;0.90;0.38;;;11.00;99.90;;;;;;4993294;28;20462;-85
2022/05/17 12:00:04;;;;;;;0.20;0.20;;;11.20;99.90;;;;;;4999730;28;20520;-86
2022/05/17 12:02:58;;;;;;;2.85;0.35;;;11.10;99.90;;;;;;4983581;28;20220;-84
2022/05/17 12:05:47;;;;;;;6.32;1.20;;;11.10;99.90;;;;;;4979765;28;20526;-87
2022/05/17 12:08:40;;;;;;;0.47;0.40;;;11.10;99.90;;;;;;4971465;28;20141;-87
2022/05/17 12:11:10;;;;;;;1.48;0.40;;;11.20;99.90;;;;;;4994873;28;20047;-87
2022/05/17 12:13:59;;;;;;;1.42;0.40;;;11.40;99.90;;;;;;4959306;28;20086;-87
2022/05/17 12:16:31;;;;;;;0.32;0.32;;;11.40;99.90;;;;;;4976340;28;20069;-86
2022/05/17 12:19:07;;;;;;;2.03;0.32;;;11.60;99.90;;;;;;4940306;28;20076;-88
2022/05/17 12:22:06;;;;;;;1.33;0.30;;;11.70;99.90;;;;;;4978241;28;20050;-87
2022/05/17 12:25:13;;;;;;;1.20;0.50;;;11.60;99.90;;;;;;4979167;28;20037;-87
2022/05/17 12:27:46;;;;;;;1.67;0.20;;;11.70;99.90;;;;;;4995988;28;20161;-87
2022/05/17 12:33:10;;;;;;;0.70;0.30;;;11.50;99.90;;;;;;4975651;28;20121;-86
2022/05/17 12:35:37;;;;;;;0.28;0.20;;;11.70;99.90;;;;;;4998668;28;20045;-85
2022/05/17 12:43:02;;;;;;;1.17;0.35;;;11.70;99.90;;;;;;4998051;28;20063;-85
2022/05/17 12:43:48;;;;;;;1.70;0.30;;;11.40;99.90;;;;;;4996168;28;20052;-86
2022/05/17 12:46:28;;;;;;;0.40;0.20;;;11.60;99.90;;;;;;4993056;28;20462;-86
2022/05/17 12:48:56;;;;;;;2.63;0.20;;;11.70;99.90;;;;;;4977933;28;20255;-87
2022/05/17 12:51:25;;;;;;;0.85;0.30;;;11.80;99.30;;;;;;4976524;28;20135;-86
2022/05/17 12:53:54;;;;;;;1.63;0.50;;;11.70;98.50;;;;;;4961164;28;20477;-85
2022/05/17 12:56:36;;;;;;;0.60;0.45;;;11.90;95.60;;;;;;4999570;28;20113;-87
2022/05/17 12:59:06;;;;;;;0.82;0.40;;;12.00;96.10;;;;;;4995345;28;20101;-86
2022/05/17 13:01:50;;;;;;;0.20;0.20;;;12.10;96.20;;;;;;4993944;28;20418;-86
2022/05/17 13:04:31;;;;;;;0.73;0.32;;;12.20;94.40;;;;;;4979391;28;20121;-85
2022/05/17 13:07:14;;;;;;;1.65;0.45;;;12.40;94.70;;;;;;4996147;28;20050;-86
2022/05/17 13:09:57;;;;;;;0.35;0.25;;;12.20;93.20;;;;;;4974739;28;20144;-88
2022/05/17 13:12:28;;;;;;;4.65;0.50;;;12.10;95.10;;;;;;4996217;28;20076;-85
2022/05/17 13:14:55;;;;;;;0.77;0.40;;;12.20;94.90;;;;;;4976330;28;20061;-87
2022/05/17 13:17:32;;;;;;;3.20;0.32;;;12.10;95.50;;;;;;4997849;28;20065;-85
2022/05/17 13:20:10;;;;;;;0.90;0.60;;;12.20;94.90;;;;;;4983668;28;20081;-88
2022/05/17 13:22:42;;;;;;;1.50;0.40;;;12.00;92.60;;;;;;4980497;28;20050;-87
2022/05/17 13:25:18;;;;;;;0.60;0.30;;;12.20;94.50;;;;;;4998996;28;20103;-86
2022/05/17 13:27:52;;;;;;;0.43;0.30;;;12.30;93.60;;;;;;4981050;28;20566;-87
2022/05/17 13:30:36;;;;;;;4.68;0.75;;;12.60;93.00;;;;;;4984938;28;20046;-88
2022/05/17 13:33:11;;;;;;;2.25;0.30;;;12.40;92.90;;;;;;4982793;28;20433;-86
2022/05/17 13:35:40;;;;;;;1.23;0.80;;;12.50;92.50;;;;;;4985008;28;20507;-85
2022/05/17 13:38:23;;;;;;;0.32;0.32;;;12.80;91.90;;;;;;5003959;28;20538;-88
2022/05/17 13:40:57;;;;;;;0.73;0.40;;;12.70;91.40;;;;;;4995916;28;20089;-87
2022/05/17 13:43:25;;;;;;;0.65;0.55;;;12.60;91.90;;;;;;4984367;28;21607;-86
2022/05/17 13:46:10;;;;;;;0.45;0.20;;;12.40;92.10;;;;;;4988015;28;20395;-85